Time;durP1;ratioP1;P1;durP2;ratioP2;P2;SDS_P1;SDS_P2;PMS_P1;PMS_P2;Temp;Humidity;BMP_temperature;BMP_pressure;BME280_temperature;BME280_humidity;BME280_pressure;Samples;Min_cycle;Max_cycle;Signal;HPM_P1;HPM_P2
2024/02/13 00:00:08;;;;;;;;;14.25;12.00;;;;;;;;5046799;28;11652;-83
2024/02/13 00:02:36;;;;;;;;;17.25;12.50;;;;;;;;5048231;28;11599;-83
2024/02/13 00:05:03;;;;;;;;;18.00;16.50;;;;;;;;5048190;28;12340;-83
2024/02/13 00:07:32;;;;;;;;;18.00;18.00;;;;;;;;5048362;28;11687;-83
2024/02/13 00:10:02;;;;;;;;;17.25;17.25;;;;;;;;5036753;28;11558;-83
2024/02/13 00:12:29;;;;;;;;;19.00;16.50;;;;;;;;5051033;28;11573;-83
2024/02/13 00:14:57;;;;;;;;;33.50;32.00;;;;;;;;5053270;28;11594;-83
2024/02/13 00:17:24;;;;;;;;;26.75;24.75;;;;;;;;5053531;28;11581;-85
2024/02/13 00:19:52;;;;;;;;;25.00;24.00;;;;;;;;5053865;28;11566;-83
2024/02/13 00:22:24;;;;;;;;;22.50;20.75;;;;;;;;5053322;28;11570;-84
2024/02/13 00:24:53;;;;;;;;;26.00;23.00;;;;;;;;5052781;28;11614;-84
2024/02/13 00:27:20;;;;;;;;;27.75;23.50;;;;;;;;5051230;28;11594;-83
2024/02/13 00:29:49;;;;;;;;;24.25;24.25;;;;;;;;5052297;28;11589;-83
2024/02/13 00:32:17;;;;;;;;;19.00;18.75;;;;;;;;5051653;28;11660;-82
2024/02/13 00:34:45;;;;;;;;;20.50;20.50;;;;;;;;5051991;28;11564;-84
2024/02/13 00:37:13;;;;;;;;;34.50;32.25;;;;;;;;5051934;28;11580;-83
2024/02/13 00:39:40;;;;;;;;;31.00;24.75;;;;;;;;5052119;28;11600;-83
2024/02/13 00:42:09;;;;;;;;;25.00;18.00;;;;;;;;5051896;28;11584;-86
2024/02/13 00:44:38;;;;;;;;;26.50;22.50;;;;;;;;5052027;28;11587;-83
2024/02/13 00:47:07;;;;;;;;;21.25;19.75;;;;;;;;5083533;28;11627;-84
2024/02/13 00:49:34;;;;;;;;;21.00;21.00;;;;;;;;5052393;28;11692;-86
2024/02/13 00:52:02;;;;;;;;;27.25;23.25;;;;;;;;5052617;28;11686;-85
2024/02/13 00:54:29;;;;;;;;;16.00;16.00;;;;;;;;5053162;28;11601;-85
2024/02/13 00:56:57;;;;;;;;;19.75;15.75;;;;;;;;5041351;28;11562;-85
2024/02/13 00:59:26;;;;;;;;;20.00;18.25;;;;;;;;5086843;28;11609;-84
2024/02/13 01:01:54;;;;;;;;;20.00;17.00;;;;;;;;5054528;28;11514;-84
2024/02/13 01:04:22;;;;;;;;;16.00;16.00;;;;;;;;5055064;28;11592;-85
2024/02/13 01:06:50;;;;;;;;;18.00;16.50;;;;;;;;5054875;28;11607;-86
2024/02/13 01:09:18;;;;;;;;;14.75;14.75;;;;;;;;5053727;28;11590;-84
2024/02/13 01:11:45;;;;;;;;;17.25;16.75;;;;;;;;5052120;28;11695;-84
2024/02/13 01:14:13;;;;;;;;;12.00;12.00;;;;;;;;5051718;28;11638;-84
2024/02/13 01:16:41;;;;;;;;;16.00;13.50;;;;;;;;5051195;28;12395;-84
2024/02/13 01:19:09;;;;;;;;;16.25;15.50;;;;;;;;5051327;28;11580;-85
2024/02/13 01:21:36;;;;;;;;;17.00;16.25;;;;;;;;5051510;28;11723;-84
2024/02/13 01:24:04;;;;;;;;;17.75;16.25;;;;;;;;5050662;28;11590;-85
2024/02/13 01:26:31;;;;;;;;;21.75;19.75;;;;;;;;5049759;28;12324;-84
2024/02/13 01:28:58;;;;;;;;;16.25;15.50;;;;;;;;5051054;28;12361;-85
2024/02/13 01:31:26;;;;;;;;;21.00;20.50;;;;;;;;5050154;28;11658;-84
2024/02/13 01:33:56;;;;;;;;;20.50;20.50;;;;;;;;5050476;28;11585;-87
2024/02/13 01:36:23;;;;;;;;;20.75;20.00;;;;;;;;5051048;28;12345;-84
2024/02/13 01:38:50;;;;;;;;;19.00;16.00;;;;;;;;5051386;28;12342;-84
2024/02/13 01:41:19;;;;;;;;;17.50;17.50;;;;;;;;5053190;28;11561;-84
2024/02/13 01:43:47;;;;;;;;;25.00;22.50;;;;;;;;5063527;28;11585;-83
2024/02/13 01:46:16;;;;;;;;;14.25;13.00;;;;;;;;5071021;28;11582;-83
2024/02/13 01:48:43;;;;;;;;;23.00;21.25;;;;;;;;5059937;28;11637;-84
2024/02/13 01:51:12;;;;;;;;;19.50;14.00;;;;;;;;5053213;28;11675;-83
2024/02/13 01:53:40;;;;;;;;;19.00;18.00;;;;;;;;5051460;28;12304;-84
2024/02/13 01:56:08;;;;;;;;;18.25;18.25;;;;;;;;5050854;28;11611;-84
2024/02/13 01:58:36;;;;;;;;;19.25;19.25;;;;;;;;5051006;28;11592;-82
2024/02/13 02:01:04;;;;;;;;;19.00;18.25;;;;;;;;5050814;28;11528;-83
2024/02/13 02:03:33;;;;;;;;;17.00;17.00;;;;;;;;5051401;28;11659;-83
2024/02/13 02:06:01;;;;;;;;;18.25;14.75;;;;;;;;5052242;28;11611;-84
2024/02/13 02:08:29;;;;;;;;;19.75;19.75;;;;;;;;5051454;28;11688;-84
2024/02/13 02:10:58;;;;;;;;;20.75;18.00;;;;;;;;5050528;28;11567;-83
2024/02/13 02:13:27;;;;;;;;;18.75;18.00;;;;;;;;5050341;28;11546;-83
2024/02/13 02:15:54;;;;;;;;;15.00;13.25;;;;;;;;5050873;28;11595;-84
2024/02/13 02:18:25;;;;;;;;;16.75;16.75;;;;;;;;5050494;28;11588;-84
2024/02/13 02:20:52;;;;;;;;;18.00;15.50;;;;;;;;5052407;28;11590;-83
2024/02/13 02:23:20;;;;;;;;;26.25;24.00;;;;;;;;5054849;28;11622;-83
2024/02/13 02:25:50;;;;;;;;;22.75;19.00;;;;;;;;5063004;28;11562;-83
2024/02/13 02:28:18;;;;;;;;;22.75;22.75;;;;;;;;5050463;28;11703;-84
2024/02/13 02:30:46;;;;;;;;;26.50;25.25;;;;;;;;5049754;28;11498;-83
2024/02/13 02:33:13;;;;;;;;;26.50;24.50;;;;;;;;5050179;28;11566;-83
2024/02/13 02:35:41;;;;;;;;;24.00;22.00;;;;;;;;5049054;28;11603;-85
2024/02/13 02:38:09;;;;;;;;;28.00;23.50;;;;;;;;5050557;28;11569;-85
2024/02/13 02:40:37;;;;;;;;;39.00;35.00;;;;;;;;5051440;28;11643;-84
2024/02/13 02:43:06;;;;;;;;;35.00;30.00;;;;;;;;5050911;28;11597;-85
2024/02/13 02:45:34;;;;;;;;;34.00;30.33;;;;;;;;5052827;28;11563;-85
2024/02/13 02:48:01;;;;;;;;;19.00;19.00;;;;;;;;5053618;28;11581;-84
2024/02/13 02:50:29;;;;;;;;;21.75;18.75;;;;;;;;5053122;28;11722;-85
2024/02/13 02:52:56;;;;;;;;;29.50;29.25;;;;;;;;5053306;28;11563;-84
2024/02/13 02:55:23;;;;;;;;;38.67;33.33;;;;;;;;5052976;28;11602;-83
2024/02/13 02:57:52;;;;;;;;;35.00;34.00;;;;;;;;5050368;28;11730;-85
2024/02/13 03:00:22;;;;;;;;;34.25;27.75;;;;;;;;5049083;28;11680;-88
2024/02/13 03:02:49;;;;;;;;;29.25;27.50;;;;;;;;5049347;28;11703;-85
2024/02/13 03:05:17;;;;;;;;;33.25;28.75;;;;;;;;5048215;28;12478;-85
2024/02/13 03:07:45;;;;;;;;;26.75;26.00;;;;;;;;5048207;28;11596;-83
2024/02/13 03:10:13;;;;;;;;;31.50;28.75;;;;;;;;5048986;28;11561;-83
2024/02/13 03:12:40;;;;;;;;;29.75;27.50;;;;;;;;5031198;28;11594;-84
2024/02/13 03:15:08;;;;;;;;;27.50;27.50;;;;;;;;5048699;28;11700;-83
2024/02/13 03:17:38;;;;;;;;;31.50;25.75;;;;;;;;5048987;28;11685;-86
2024/02/13 03:20:10;;;;;;;;;26.50;23.00;;;;;;;;5048757;28;11741;-85
2024/02/13 03:22:37;;;;;;;;;22.00;21.25;;;;;;;;5049174;28;11585;-85
2024/02/13 03:25:05;;;;;;;;;28.75;26.75;;;;;;;;5048787;28;11714;-84
2024/02/13 03:27:32;;;;;;;;;23.00;22.75;;;;;;;;5048878;28;11575;-82
2024/02/13 03:30:00;;;;;;;;;19.00;17.00;;;;;;;;5080697;28;11666;-84
2024/02/13 03:32:27;;;;;;;;;31.50;26.25;;;;;;;;5048211;28;11516;-84
2024/02/13 03:34:56;;;;;;;;;34.00;28.67;;;;;;;;5047258;28;11599;-85
2024/02/13 03:37:24;;;;;;;;;21.00;21.00;;;;;;;;5048747;28;11605;-87
2024/02/13 03:39:51;;;;;;;;;18.00;16.25;;;;;;;;5049023;28;11593;-87
2024/02/13 03:42:18;;;;;;;;;18.50;17.75;;;;;;;;5048742;28;11587;-85
2024/02/13 03:44:46;;;;;;;;;25.25;21.00;;;;;;;;5049112;28;11592;-83
2024/02/13 03:47:13;;;;;;;;;19.00;18.00;;;;;;;;5048779;28;11574;-84
2024/02/13 03:49:41;;;;;;;;;19.00;17.25;;;;;;;;5050003;28;11575;-84
2024/02/13 03:52:10;;;;;;;;;16.75;16.75;;;;;;;;5051223;28;11579;-84
2024/02/13 03:54:37;;;;;;;;;18.50;18.50;;;;;;;;5050305;28;11582;-84
2024/02/13 03:57:06;;;;;;;;;18.00;18.00;;;;;;;;5049078;28;11549;-84
2024/02/13 03:59:33;;;;;;;;;17.25;13.25;;;;;;;;5048944;28;11593;-85
2024/02/13 04:02:03;;;;;;;;;15.25;15.25;;;;;;;;5048594;28;11652;-85
2024/02/13 04:04:30;;;;;;;;;17.00;17.00;;;;;;;;5048748;28;11655;-85
2024/02/13 04:06:58;;;;;;;;;17.75;15.50;;;;;;;;5048702;28;11560;-84
2024/02/13 04:09:29;;;;;;;;;16.50;14.00;;;;;;;;5049198;28;11582;-85
2024/02/13 04:11:57;;;;;;;;;22.50;18.25;;;;;;;;5048089;28;11584;-83
2024/02/13 04:14:25;;;;;;;;;19.75;16.50;;;;;;;;5049042;28;11586;-85
2024/02/13 04:16:52;;;;;;;;;17.00;16.00;;;;;;;;5048594;28;11604;-86
2024/02/13 04:19:20;;;;;;;;;15.00;14.75;;;;;;;;5049123;28;11651;-84
2024/02/13 04:21:47;;;;;;;;;20.00;20.00;;;;;;;;5049369;28;11604;-84
2024/02/13 04:24:14;;;;;;;;;20.25;19.25;;;;;;;;5050609;28;11587;-87
2024/02/13 04:26:43;;;;;;;;;19.75;19.75;;;;;;;;5052590;28;11574;-84
2024/02/13 04:29:10;;;;;;;;;23.50;20.25;;;;;;;;5054445;28;11590;-84
2024/02/13 04:31:38;;;;;;;;;17.75;17.00;;;;;;;;5052990;28;11511;-86
2024/02/13 04:34:06;;;;;;;;;21.50;20.25;;;;;;;;5054647;28;11571;-84
2024/02/13 04:36:33;;;;;;;;;20.00;19.25;;;;;;;;5053390;28;11607;-85
2024/02/13 04:39:01;;;;;;;;;22.75;21.25;;;;;;;;5052969;28;11581;-84
2024/02/13 04:41:28;;;;;;;;;18.75;16.75;;;;;;;;5053785;28;11565;-85
2024/02/13 04:43:57;;;;;;;;;21.25;18.50;;;;;;;;5056664;28;11760;-86
2024/02/13 04:46:24;;;;;;;;;20.75;19.25;;;;;;;;5068852;28;11618;-84
2024/02/13 04:48:54;;;;;;;;;28.75;21.00;;;;;;;;5057010;28;11561;-86
2024/02/13 04:51:23;;;;;;;;;29.50;28.25;;;;;;;;5049253;28;11619;-87
2024/02/13 04:53:51;;;;;;;;;22.75;22.75;;;;;;;;5047453;28;11628;-83
2024/02/13 04:56:18;;;;;;;;;21.25;19.00;;;;;;;;5047639;28;11606;-84
2024/02/13 04:58:46;;;;;;;;;30.00;26.00;;;;;;;;5050193;28;12044;-83
2024/02/13 05:01:14;;;;;;;;;26.00;26.00;;;;;;;;5050641;28;11557;-83
2024/02/13 05:07:19;;;;;;;;;26.50;26.00;;;;;;;;5050926;28;11613;-81
2024/02/13 05:09:16;;;;;;;;;19.00;18.00;;;;;;;;5049013;28;11548;-82
2024/02/13 05:11:43;;;;;;;;;28.25;24.75;;;;;;;;5057569;28;11586;-83
2024/02/13 05:14:10;;;;;;;;;31.25;28.00;;;;;;;;5053810;28;11719;-82
2024/02/13 05:16:41;;;;;;;;;36.33;31.33;;;;;;;;5053991;28;11564;-83
2024/02/13 05:19:08;;;;;;;;;29.25;23.50;;;;;;;;5051707;28;11702;-81
2024/02/13 05:21:36;;;;;;;;;35.00;33.00;;;;;;;;5050413;28;11605;-81
2024/02/13 05:24:04;;;;;;;;;51.00;43.67;;;;;;;;5050750;28;11596;-82
2024/02/13 05:26:33;;;;;;;;;53.67;44.67;;;;;;;;5050435;28;8900;-83
2024/02/13 05:29:01;;;;;;;;;34.75;30.25;;;;;;;;5050737;28;9217;-84
2024/02/13 05:31:29;;;;;;;;;53.67;46.00;;;;;;;;5049971;28;11536;-86
2024/02/13 05:33:58;;;;;;;;;58.33;48.67;;;;;;;;5051030;28;11714;-82
2024/02/13 05:36:29;;;;;;;;;58.33;49.00;;;;;;;;5051671;28;8883;-84
2024/02/13 05:38:56;;;;;;;;;64.00;50.33;;;;;;;;5053088;28;8996;-82
2024/02/13 05:41:24;;;;;;;;;58.00;46.00;;;;;;;;5054329;28;8869;-85
2024/02/13 05:43:52;;;;;;;;;61.33;49.33;;;;;;;;5052733;28;11653;-84
2024/02/13 05:46:20;;;;;;;;;58.67;47.00;;;;;;;;5050794;28;8857;-86
2024/02/13 05:48:49;;;;;;;;;61.67;45.67;;;;;;;;5050097;28;8881;-82
2024/02/13 05:51:18;;;;;;;;;61.33;52.00;;;;;;;;5037771;28;8870;-85
2024/02/13 05:53:45;;;;;;;;;65.33;52.33;;;;;;;;5050282;28;8865;-83
2024/02/13 05:56:13;;;;;;;;;62.33;49.67;;;;;;;;5050550;28;8985;-83
2024/02/13 05:58:40;;;;;;;;;62.67;49.67;;;;;;;;5049854;28;11609;-83
2024/02/13 06:01:12;;;;;;;;;50.33;42.00;;;;;;;;5049849;28;11510;-82
2024/02/13 06:03:39;;;;;;;;;63.00;53.00;;;;;;;;5049474;28;11724;-83
2024/02/13 06:06:07;;;;;;;;;59.00;48.33;;;;;;;;5049889;28;8980;-84
2024/02/13 06:08:36;;;;;;;;;51.75;44.25;;;;;;;;5048754;28;8888;-80
2024/02/13 06:11:04;;;;;;;;;52.00;45.00;;;;;;;;5050453;28;11593;-80
2024/02/13 06:13:33;;;;;;;;;64.50;49.25;;;;;;;;5049723;28;12394;-78
2024/02/13 06:16:00;;;;;;;;;50.75;46.00;;;;;;;;5051428;28;11593;-87
2024/02/13 06:18:28;;;;;;;;;50.75;45.25;;;;;;;;5051574;28;11715;-79
2024/02/13 06:20:55;;;;;;;;;43.75;38.00;;;;;;;;5052063;28;11592;-76
2024/02/13 06:23:22;;;;;;;;;55.75;46.00;;;;;;;;5052666;28;11710;-79
2024/02/13 06:25:51;;;;;;;;;48.50;44.50;;;;;;;;5051542;28;11605;-82
2024/02/13 06:28:18;;;;;;;;;50.00;42.75;;;;;;;;5051627;28;11612;-79
2024/02/13 06:30:47;;;;;;;;;49.25;43.25;;;;;;;;5051664;28;11528;-78
2024/02/13 06:33:15;;;;;;;;;53.00;42.00;;;;;;;;5048909;28;11611;-81
2024/02/13 06:35:42;;;;;;;;;51.75;44.25;;;;;;;;5049080;28;11618;-82
2024/02/13 06:38:10;;;;;;;;;42.50;39.00;;;;;;;;5048475;28;11698;-77
2024/02/13 06:40:38;;;;;;;;;45.00;39.75;;;;;;;;5049709;28;11586;-79
2024/02/13 06:43:06;;;;;;;;;46.75;40.50;;;;;;;;5047140;28;11567;-85
2024/02/13 06:45:34;;;;;;;;;45.00;41.00;;;;;;;;5048653;28;11581;-85
2024/02/13 06:48:01;;;;;;;;;44.50;40.00;;;;;;;;5049159;28;11703;-84
2024/02/13 06:50:31;;;;;;;;;49.50;43.00;;;;;;;;5048517;28;11694;-80
2024/02/13 06:52:59;;;;;;;;;56.00;47.00;;;;;;;;5048695;28;11735;-81
2024/02/13 06:55:28;;;;;;;;;56.50;47.75;;;;;;;;5049099;28;11688;-80
2024/02/13 06:57:58;;;;;;;;;46.00;40.00;;;;;;;;5049577;28;11601;-83
2024/02/13 07:00:30;;;;;;;;;41.50;37.00;;;;;;;;5048396;28;11654;-78
2024/02/13 07:02:59;;;;;;;;;45.25;41.50;;;;;;;;5050075;28;11583;-83
2024/02/13 07:05:32;;;;;;;;;46.75;43.00;;;;;;;;5050732;28;11669;-77
2024/02/13 07:07:59;;;;;;;;;44.25;38.75;;;;;;;;5050726;28;11701;-83
2024/02/13 07:10:31;;;;;;;;;38.75;37.75;;;;;;;;5048816;28;11578;-73
2024/02/13 07:12:58;;;;;;;;;50.00;43.75;;;;;;;;5048012;28;11590;-75
2024/02/13 07:15:27;;;;;;;;;53.25;44.75;;;;;;;;5048222;28;11585;-76
2024/02/13 07:17:54;;;;;;;;;46.75;42.75;;;;;;;;5048488;28;11684;-76
2024/02/13 07:20:22;;;;;;;;;48.75;43.00;;;;;;;;5048039;28;11573;-74
2024/02/13 07:22:49;;;;;;;;;46.25;42.25;;;;;;;;5047755;28;11688;-77
2024/02/13 07:25:16;;;;;;;;;50.25;43.50;;;;;;;;5048105;28;11633;-78
2024/02/13 07:27:43;;;;;;;;;44.75;40.75;;;;;;;;5047403;28;11584;-76
2024/02/13 07:30:13;;;;;;;;;46.50;40.50;;;;;;;;5047614;28;11604;-75
2024/02/13 07:32:41;;;;;;;;;41.25;39.00;;;;;;;;5047446;28;11628;-76
2024/02/13 07:35:09;;;;;;;;;39.50;38.00;;;;;;;;5047835;28;11592;-76
2024/02/13 07:37:36;;;;;;;;;44.75;40.00;;;;;;;;5048477;28;12454;-75
2024/02/13 07:40:04;;;;;;;;;45.00;40.50;;;;;;;;5051950;28;11735;-73
2024/02/13 07:42:31;;;;;;;;;46.75;41.75;;;;;;;;5058435;28;11698;-71
2024/02/13 07:45:00;;;;;;;;;36.75;34.75;;;;;;;;5053068;28;11614;-80
2024/02/13 07:47:28;;;;;;;;;46.75;37.00;;;;;;;;5048996;28;11617;-74
2024/02/13 07:49:58;;;;;;;;;47.50;39.75;;;;;;;;5048371;28;11615;-74
2024/02/13 07:52:26;;;;;;;;;48.50;40.25;;;;;;;;5047743;28;11638;-73
2024/02/13 07:54:53;;;;;;;;;42.00;40.00;;;;;;;;5048474;28;11722;-72
2024/02/13 07:57:23;;;;;;;;;47.50;41.50;;;;;;;;5047560;28;11639;-79
2024/02/13 07:59:54;;;;;;;;;53.00;45.50;;;;;;;;5047578;28;11131;-75
2024/02/13 08:02:22;;;;;;;;;42.50;38.50;;;;;;;;5047027;28;11547;-75
2024/02/13 08:04:51;;;;;;;;;45.75;40.75;;;;;;;;5047846;28;11605;-78
2024/02/13 08:07:19;;;;;;;;;47.75;40.00;;;;;;;;5047277;28;12178;-78
2024/02/13 08:09:47;;;;;;;;;43.25;38.75;;;;;;;;5047773;28;11745;-73
2024/02/13 08:12:15;;;;;;;;;40.25;38.50;;;;;;;;5053020;28;11572;-79
2024/02/13 08:14:42;;;;;;;;;46.75;41.50;;;;;;;;5055080;28;11617;-76
2024/02/13 08:17:10;;;;;;;;;42.50;39.25;;;;;;;;5049866;28;11597;-78
2024/02/13 08:19:40;;;;;;;;;40.75;39.50;;;;;;;;5048571;28;11688;-76
2024/02/13 08:22:07;;;;;;;;;35.50;34.75;;;;;;;;5049427;28;11575;-79
2024/02/13 08:24:37;;;;;;;;;31.75;30.25;;;;;;;;5047490;28;11624;-77
2024/02/13 08:27:05;;;;;;;;;29.25;28.25;;;;;;;;5047927;28;12362;-77
2024/02/13 08:29:33;;;;;;;;;27.75;27.50;;;;;;;;5047212;28;11636;-75
2024/02/13 08:32:10;;;;;;;;;25.00;19.75;;;;;;;;5046852;28;11557;-75
2024/02/13 08:34:38;;;;;;;;;25.75;22.00;;;;;;;;5050002;28;11575;-75
2024/02/13 08:37:05;;;;;;;;;27.00;26.50;;;;;;;;5051909;28;11630;-79
2024/02/13 08:39:32;;;;;;;;;24.50;23.50;;;;;;;;5054059;28;11571;-71
2024/02/13 08:42:01;;;;;;;;;24.75;24.00;;;;;;;;5061725;28;11608;-75
2024/02/13 08:44:33;;;;;;;;;24.00;24.00;;;;;;;;5057025;28;11614;-77
2024/02/13 08:47:03;;;;;;;;;29.25;26.75;;;;;;;;5052341;28;11661;-81
2024/02/13 08:49:33;;;;;;;;;24.00;23.25;;;;;;;;5050052;28;11686;-79
2024/02/13 08:52:04;;;;;;;;;25.25;23.75;;;;;;;;5050983;28;11588;-77
2024/02/13 08:54:32;;;;;;;;;33.50;29.50;;;;;;;;5050924;28;11553;-74
2024/02/13 08:56:59;;;;;;;;;32.00;25.00;;;;;;;;5050921;28;11673;-75
2024/02/13 08:59:31;;;;;;;;;24.50;24.00;;;;;;;;5051202;28;11560;-75
2024/02/13 09:01:58;;;;;;;;;28.50;24.50;;;;;;;;5045414;28;11523;-77
2024/02/13 09:04:27;;;;;;;;;25.75;23.50;;;;;;;;5050767;28;11597;-81
2024/02/13 09:06:56;;;;;;;;;24.75;24.75;;;;;;;;5050779;28;12273;-77
2024/02/13 09:09:25;;;;;;;;;24.25;24.25;;;;;;;;5050546;28;11586;-76
2024/02/13 09:11:52;;;;;;;;;25.25;24.00;;;;;;;;5050372;28;11660;-73
2024/02/13 09:14:19;;;;;;;;;23.75;22.50;;;;;;;;5050299;28;11542;-80
2024/02/13 09:16:48;;;;;;;;;27.25;23.50;;;;;;;;5050147;28;11715;-75
2024/02/13 09:19:15;;;;;;;;;28.50;24.25;;;;;;;;5050049;28;11476;-77
2024/02/13 09:21:43;;;;;;;;;28.75;27.00;;;;;;;;5049625;28;11653;-78
2024/02/13 09:24:14;;;;;;;;;23.50;21.50;;;;;;;;5049811;28;11755;-77
2024/02/13 09:26:41;;;;;;;;;22.00;20.75;;;;;;;;5049694;28;11629;-76
2024/02/13 09:29:08;;;;;;;;;25.25;25.25;;;;;;;;5049953;28;11520;-76
2024/02/13 09:31:35;;;;;;;;;21.25;21.25;;;;;;;;5055104;28;11448;-75
2024/02/13 09:34:06;;;;;;;;;22.75;22.75;;;;;;;;5049781;28;11555;-79
2024/02/13 09:36:33;;;;;;;;;24.00;20.00;;;;;;;;5049297;28;11657;-80
2024/02/13 09:39:03;;;;;;;;;16.75;14.75;;;;;;;;5049731;28;11629;-79
2024/02/13 09:41:30;;;;;;;;;27.25;22.25;;;;;;;;5049662;28;11626;-80
2024/02/13 09:43:59;;;;;;;;;24.50;22.25;;;;;;;;5049618;28;11550;-80
2024/02/13 09:46:27;;;;;;;;;21.75;21.75;;;;;;;;5049519;28;11537;-77
2024/02/13 09:48:56;;;;;;;;;32.25;30.00;;;;;;;;5050288;28;11621;-81
2024/02/13 09:51:28;;;;;;;;;21.00;21.00;;;;;;;;5050126;28;11518;-75
2024/02/13 09:53:57;;;;;;;;;14.75;13.75;;;;;;;;5050658;28;11490;-80
2024/02/13 09:56:28;;;;;;;;;21.00;19.50;;;;;;;;5050615;28;11566;-78
2024/02/13 09:58:55;;;;;;;;;25.75;22.50;;;;;;;;5050821;28;11538;-77
2024/02/13 10:01:23;;;;;;;;;21.25;21.25;;;;;;;;5051295;28;11491;-77
2024/02/13 10:03:51;;;;;;;;;22.50;22.50;;;;;;;;5050491;28;11652;-76
2024/02/13 10:06:18;;;;;;;;;31.00;26.25;;;;;;;;5050672;28;11518;-76
2024/02/13 10:08:51;;;;;;;;;29.75;25.00;;;;;;;;5050698;28;11547;-76
2024/02/13 10:11:18;;;;;;;;;24.25;22.00;;;;;;;;5051506;28;11548;-77
2024/02/13 10:13:46;;;;;;;;;22.00;21.00;;;;;;;;5049408;28;12441;-79
2024/02/13 10:16:19;;;;;;;;;19.75;19.75;;;;;;;;5049295;28;11641;-77
2024/02/13 10:18:49;;;;;;;;;24.25;22.75;;;;;;;;5048655;28;11516;-80
2024/02/13 10:21:17;;;;;;;;;19.25;19.25;;;;;;;;5049000;28;12341;-79
2024/02/13 10:23:45;;;;;;;;;19.00;17.00;;;;;;;;5048858;28;11619;-75
2024/02/13 10:26:15;;;;;;;;;24.50;22.50;;;;;;;;5049240;28;11598;-75
2024/02/13 10:28:44;;;;;;;;;30.00;29.00;;;;;;;;5048658;28;12309;-76
2024/02/13 10:31:11;;;;;;;;;28.00;28.00;;;;;;;;5048673;28;11524;-76
2024/02/13 10:33:42;;;;;;;;;26.75;24.00;;;;;;;;5049158;28;11547;-76
2024/02/13 10:36:10;;;;;;;;;25.00;23.00;;;;;;;;5048298;28;11510;-79
2024/02/13 10:38:37;;;;;;;;;30.25;25.75;;;;;;;;5048983;28;11217;-80
2024/02/13 10:41:10;;;;;;;;;29.00;27.75;;;;;;;;5048866;28;11541;-80
2024/02/13 10:43:39;;;;;;;;;30.50;27.00;;;;;;;;5049513;28;11542;-78
2024/02/13 10:46:09;;;;;;;;;24.50;24.50;;;;;;;;5050161;28;11545;-77
2024/02/13 10:48:45;;;;;;;;;25.25;25.25;;;;;;;;5049133;28;12338;-76
2024/02/13 10:51:17;;;;;;;;;29.00;28.25;;;;;;;;5048246;28;11205;-78
2024/02/13 10:53:44;;;;;;;;;26.00;24.75;;;;;;;;5048615;28;11424;-73
2024/02/13 10:56:15;;;;;;;;;33.00;30.00;;;;;;;;5047970;28;11181;-77
2024/02/13 10:58:45;;;;;;;;;27.00;27.00;;;;;;;;5048014;28;11236;-74
2024/02/13 11:01:14;;;;;;;;;27.75;25.75;;;;;;;;5049371;28;11137;-75
2024/02/13 11:03:42;;;;;;;;;27.50;27.25;;;;;;;;5048388;28;10987;-75
2024/02/13 11:06:10;;;;;;;;;27.50;27.00;;;;;;;;5050490;28;10917;-78
2024/02/13 11:08:38;;;;;;;;;24.50;24.50;;;;;;;;5051696;28;10984;-73
2024/02/13 11:11:17;;;;;;;;;27.50;26.00;;;;;;;;5055915;28;10859;-69
2024/02/13 11:13:44;;;;;;;;;26.25;23.75;;;;;;;;5048598;28;10968;-77
2024/02/13 11:16:13;;;;;;;;;25.50;23.75;;;;;;;;5048524;28;10667;-82
2024/02/13 11:18:47;;;;;;;;;27.75;26.50;;;;;;;;5046145;28;11491;-73
2024/02/13 11:21:20;;;;;;;;;24.50;20.75;;;;;;;;5043160;28;10925;-73
2024/02/13 11:23:53;;;;;;;;;20.75;20.75;;;;;;;;5048141;28;10528;-84
2024/02/13 11:26:21;;;;;;;;;27.00;27.00;;;;;;;;5051313;28;10656;-75
2024/02/13 11:28:49;;;;;;;;;29.25;29.25;;;;;;;;5048027;28;10586;-74
2024/02/13 11:31:16;;;;;;;;;25.75;25.75;;;;;;;;5048012;28;10755;-84
2024/02/13 11:34:04;;;;;;;;;21.00;21.00;;;;;;;;5048892;28;10319;-80
2024/02/13 11:36:32;;;;;;;;;20.75;20.75;;;;;;;;5047803;28;10312;-81
2024/02/13 11:39:03;;;;;;;;;19.75;19.75;;;;;;;;5048545;28;10234;-78
2024/02/13 11:41:33;;;;;;;;;26.75;24.75;;;;;;;;5049506;28;10196;-81
2024/02/13 11:44:13;;;;;;;;;22.00;22.00;;;;;;;;5050122;28;10296;-75
2024/02/13 11:46:41;;;;;;;;;27.25;24.50;;;;;;;;5049331;28;10066;-74
2024/02/13 11:49:09;;;;;;;;;20.75;20.75;;;;;;;;5048146;28;10224;-77
2024/02/13 11:51:37;;;;;;;;;19.00;19.00;;;;;;;;5049677;28;10117;-74
2024/02/13 11:54:06;;;;;;;;;21.25;19.50;;;;;;;;5050780;28;10183;-74
2024/02/13 11:56:35;;;;;;;;;23.25;23.25;;;;;;;;5049794;28;10108;-77
2024/02/13 11:59:06;;;;;;;;;24.50;22.50;;;;;;;;5049008;28;10075;-73
2024/02/13 12:01:36;;;;;;;;;18.75;18.75;;;;;;;;5050634;28;10052;-77
2024/02/13 12:04:04;;;;;;;;;21.75;21.75;;;;;;;;5049203;28;9947;-79
2024/02/13 12:06:31;;;;;;;;;19.00;18.50;;;;;;;;5047462;28;10680;-85
2024/02/13 12:08:59;;;;;;;;;18.75;17.75;;;;;;;;5050657;28;10472;-79
2024/02/13 12:11:27;;;;;;;;;21.25;21.25;;;;;;;;5052626;28;9885;-74
2024/02/13 12:13:56;;;;;;;;;16.25;16.00;;;;;;;;5051781;28;9635;-74
2024/02/13 12:16:23;;;;;;;;;19.25;17.00;;;;;;;;5052069;28;9696;-71
2024/02/13 12:18:51;;;;;;;;;20.75;19.00;;;;;;;;5051025;28;9626;-75
2024/02/13 12:21:18;;;;;;;;;17.75;17.75;;;;;;;;5051976;28;9706;-76
2024/02/13 12:23:47;;;;;;;;;17.50;15.50;;;;;;;;5051266;28;9481;-74
2024/02/13 12:26:17;;;;;;;;;16.50;16.50;;;;;;;;5051387;28;9537;-75
2024/02/13 12:28:55;;;;;;;;;18.00;18.00;;;;;;;;5051349;28;9440;-75
2024/02/13 12:31:26;;;;;;;;;19.00;19.00;;;;;;;;5051910;28;9555;-78
2024/02/13 12:34:02;;;;;;;;;14.33;14.33;;;;;;;;5053167;28;9543;-77
2024/02/13 12:36:31;;;;;;;;;16.67;16.67;;;;;;;;5053045;28;9400;-78
2024/02/13 12:39:06;;;;;;;;;16.67;15.67;;;;;;;;5052229;28;9412;-75
2024/02/13 12:41:34;;;;;;;;;13.67;13.33;;;;;;;;5050932;28;9219;-76
2024/02/13 12:44:03;;;;;;;;;19.33;17.33;;;;;;;;5051367;28;9258;-73
2024/02/13 12:46:36;;;;;;;;;13.33;13.33;;;;;;;;5050823;28;9047;-75
2024/02/13 12:49:05;;;;;;;;;12.33;12.33;;;;;;;;5051299;28;9071;-74
2024/02/13 12:51:33;;;;;;;;;20.00;19.00;;;;;;;;5051370;28;8939;-72
2024/02/13 12:54:04;;;;;;;;;12.25;12.25;;;;;;;;5051253;28;9027;-73
2024/02/13 12:56:33;;;;;;;;;12.00;12.00;;;;;;;;5051309;28;8862;-78
2024/02/13 12:59:02;;;;;;;;;10.00;10.00;;;;;;;;5051889;28;8926;-79
2024/02/13 13:01:31;;;;;;;;;9.00;7.75;;;;;;;;5052938;28;8797;-77
2024/02/13 13:03:58;;;;;;;;;10.75;10.75;;;;;;;;5052353;28;8837;-75
2024/02/13 13:06:26;;;;;;;;;10.25;10.25;;;;;;;;5050965;28;8877;-73
2024/02/13 13:08:56;;;;;;;;;10.25;9.00;;;;;;;;5051667;28;8845;-75
2024/02/13 13:11:23;;;;;;;;;6.75;6.75;;;;;;;;5050802;28;8865;-79
2024/02/13 13:13:50;;;;;;;;;9.75;9.75;;;;;;;;5050641;28;8865;-74
2024/02/13 13:16:20;;;;;;;;;7.75;7.75;;;;;;;;5050911;28;8959;-75
2024/02/13 13:18:48;;;;;;;;;8.75;8.75;;;;;;;;5050079;28;8861;-76
2024/02/13 13:21:15;;;;;;;;;7.00;7.00;;;;;;;;5050833;28;9642;-75
2024/02/13 13:23:45;;;;;;;;;7.00;7.00;;;;;;;;5050175;28;8942;-74
2024/02/13 13:26:15;;;;;;;;;11.75;9.75;;;;;;;;5050806;28;8849;-78
2024/02/13 13:28:48;;;;;;;;;9.75;8.75;;;;;;;;5050559;28;9775;-78
2024/02/13 13:31:15;;;;;;;;;2.00;2.00;;;;;;;;5050928;28;8859;-78
2024/02/13 13:33:46;;;;;;;;;7.75;7.75;;;;;;;;5044623;28;8945;-80
2024/02/13 13:36:16;;;;;;;;;9.33;9.33;;;;;;;;5052558;28;8873;-77
2024/02/13 13:38:45;;;;;;;;;7.00;7.00;;;;;;;;5053685;28;9013;-76
2024/02/13 13:41:14;;;;;;;;;12.00;12.00;;;;;;;;5055001;28;8910;-76
2024/02/13 13:43:45;;;;;;;;;8.00;8.00;;;;;;;;5055061;28;9163;-75
2024/02/13 13:46:12;;;;;;;;;8.33;8.33;;;;;;;;5054776;28;9160;-77
2024/02/13 13:48:40;;;;;;;;;9.67;9.67;;;;;;;;5055554;28;9387;-75
2024/02/13 13:51:08;;;;;;;;;8.33;6.33;;;;;;;;5055624;28;9078;-73
2024/02/13 13:53:36;;;;;;;;;8.00;8.00;;;;;;;;5054069;28;9033;-72
2024/02/13 13:56:03;;;;;;;;;9.00;9.00;;;;;;;;5050365;28;9073;-76
2024/02/13 13:58:32;;;;;;;;;8.67;7.33;;;;;;;;5051007;28;9108;-78
2024/02/13 14:01:00;;;;;;;;;32.25;27.25;;;;;;;;5050046;28;8877;-74
2024/02/13 14:03:28;;;;;;;;;8.00;8.00;;;;;;;;5051825;28;9884;-76
2024/02/13 14:05:55;;;;;;;;;7.33;7.33;;;;;;;;5052287;28;8947;-79
2024/02/13 14:08:24;;;;;;;;;6.33;6.33;;;;;;;;5050365;28;9040;-80
2024/02/13 14:10:52;;;;;;;;;10.00;7.67;;;;;;;;5049031;28;9762;-77
2024/02/13 14:13:20;;;;;;;;;9.00;9.00;;;;;;;;5049614;28;9252;-78
2024/02/13 14:15:48;;;;;;;;;10.00;8.67;;;;;;;;5048898;28;9189;-78
2024/02/13 14:18:15;;;;;;;;;8.00;7.00;;;;;;;;5049698;28;9275;-73
2024/02/13 14:20:42;;;;;;;;;8.33;7.00;;;;;;;;5049577;28;9102;-75
2024/02/13 14:23:10;;;;;;;;;8.00;8.00;;;;;;;;5050187;28;9838;-73
2024/02/13 14:25:39;;;;;;;;;9.00;7.67;;;;;;;;5051603;28;9438;-75
2024/02/13 14:28:07;;;;;;;;;9.33;8.67;;;;;;;;5051262;28;9320;-79
2024/02/13 14:30:35;;;;;;;;;11.67;11.67;;;;;;;;5048645;28;9411;-77